Time;durP1;ratioP1;P1;durP2;ratioP2;P2;SDS_P1;SDS_P2;PMS_P1;PMS_P2;Temp;Humidity;BMP_temperature;BMP_pressure;BME280_temperature;BME280_humidity;BME280_pressure;Samples;Min_cycle;Max_cycle;Signal;HPM_P1;HPM_P2
2021/09/05 00:00:39;;;;;;;60.27;38.00;;;;;;;;;;5056485;28;20602;-52
2021/09/05 00:03:09;;;;;;;65.17;45.03;;;;;;;;;;5056720;28;20454;-58
2021/09/05 00:05:36;;;;;;;62.93;38.07;;;;;;;;;;5056600;28;20418;-54
2021/09/05 00:08:09;;;;;;;49.90;31.37;;;;;;;;;;5075218;28;20485;-51
2021/09/05 00:10:37;;;;;;;135.07;92.70;;;;;;;;;;5076294;28;20445;-59
2021/09/05 00:13:04;;;;;;;71.93;50.87;;;;;;;;;;5076615;28;20508;-53
2021/09/05 00:15:32;;;;;;;115.53;70.30;;;;;;;;;;5062483;28;20454;-53
2021/09/05 00:18:14;;;;;;;86.17;55.13;;;;;;;;;;5056501;28;20445;-52
2021/09/05 00:20:55;;;;;;;116.80;74.27;;;;;;;;;;5071845;28;20472;-54
2021/09/05 00:23:24;;;;;;;131.47;91.23;;;;;;;;;;5076376;28;20611;-52
2021/09/05 00:25:52;;;;;;;172.13;114.50;;;;;;;;;;5076351;28;20512;-53
2021/09/05 00:28:20;;;;;;;103.30;73.50;;;;;;;;;;5076216;28;20554;-54
2021/09/05 00:30:47;;;;;;;37.73;24.53;;;;;;;;;;5058100;28;20557;-53
2021/09/05 00:33:15;;;;;;;28.53;21.20;;;;;;;;;;5056238;28;20493;-52
2021/09/05 00:35:42;;;;;;;46.07;29.00;;;;;;;;;;5056685;28;20468;-53
2021/09/05 00:38:11;;;;;;;57.90;36.10;;;;;;;;;;5060124;28;20434;-57
2021/09/05 00:40:55;;;;;;;39.23;22.60;;;;;;;;;;5059972;28;20561;-48
2021/09/05 00:43:22;;;;;;;28.70;18.93;;;;;;;;;;5060063;28;20448;-53
2021/09/05 00:45:50;;;;;;;43.90;29.13;;;;;;;;;;5059930;28;20497;-53
2021/09/05 00:51:22;;;;;;;72.23;49.87;;;;;;;;;;5058156;28;20455;-56
2021/09/05 00:53:51;;;;;;;38.90;29.17;;;;;;;;;;5059783;28;20445;-52
2021/09/05 00:56:18;;;;;;;33.27;22.23;;;;;;;;;;5060177;28;20446;-51
2021/09/05 00:58:46;;;;;;;26.97;19.50;;;;;;;;;;5059441;28;20446;-56
2021/09/05 01:01:28;;;;;;;33.90;23.23;;;;;;;;;;5060200;28;20459;-49
2021/09/05 01:03:57;;;;;;;38.03;29.80;;;;;;;;;;5059562;28;20515;-55
2021/09/05 01:06:25;;;;;;;40.93;25.80;;;;;;;;;;5059490;28;20442;-59
2021/09/05 01:14:47;;;;;;;19.40;13.60;;;;;;;;;;5077414;28;20471;-53
2021/09/05 01:17:14;;;;;;;20.20;14.97;;;;;;;;;;5079478;28;20471;-51
2021/09/05 01:19:52;;;;;;;19.27;14.93;;;;;;;;;;5079367;28;20508;-58
2021/09/05 01:22:22;;;;;;;21.10;16.33;;;;;;;;;;5078840;28;20448;-52
2021/09/05 01:24:50;;;;;;;21.30;14.07;;;;;;;;;;5059655;28;20480;-52
2021/09/05 01:27:23;;;;;;;25.03;17.40;;;;;;;;;;5059523;28;20477;-52
2021/09/05 01:29:51;;;;;;;53.33;34.83;;;;;;;;;;5059021;28;20448;-54
2021/09/05 01:32:19;;;;;;;29.57;22.77;;;;;;;;;;5058540;28;20474;-56
2021/09/05 01:38:02;;;;;;;65.40;46.50;;;;;;;;;;5059418;28;20412;-55
2021/09/05 01:40:29;;;;;;;35.73;23.73;;;;;;;;;;5074878;28;20492;-51
2021/09/05 01:42:59;;;;;;;29.47;22.87;;;;;;;;;;5078966;28;20451;-59
2021/09/05 01:45:36;;;;;;;35.90;26.03;;;;;;;;;;5078872;28;20445;-55
2021/09/05 01:48:03;;;;;;;21.90;14.17;;;;;;;;;;5077823;28;20488;-51
2021/09/05 01:50:35;;;;;;;40.63;30.93;;;;;;;;;;5079185;28;20453;-57
2021/09/05 01:53:21;;;;;;;34.07;27.87;;;;;;;;;;5078760;28;20471;-56
2021/09/05 01:55:48;;;;;;;59.90;45.47;;;;;;;;;;5076469;28;20595;-52
2021/09/05 01:58:20;;;;;;;17.10;14.47;;;;;;;;;;5078346;28;20457;-54
2021/09/05 02:01:11;;;;;;;23.33;18.53;;;;;;;;;;5077761;28;20510;-51
2021/09/05 02:03:39;;;;;;;27.97;21.17;;;;;;;;;;5058491;28;20448;-47
2021/09/05 02:06:06;;;;;;;18.10;13.50;;;;;;;;;;5058676;28;20435;-52
2021/09/05 02:08:44;;;;;;;49.60;40.73;;;;;;;;;;5058307;28;20473;-53
2021/09/05 02:11:11;;;;;;;24.30;19.73;;;;;;;;;;5058106;28;20441;-54
2021/09/05 02:13:40;;;;;;;39.47;29.80;;;;;;;;;;5058352;28;20446;-53
2021/09/05 02:16:25;;;;;;;33.83;27.80;;;;;;;;;;5057923;28;20648;-52
2021/09/05 02:18:53;;;;;;;34.33;26.07;;;;;;;;;;5069033;28;20628;-57
2021/09/05 02:21:23;;;;;;;25.73;20.57;;;;;;;;;;5078232;28;20464;-52
2021/09/05 02:24:05;;;;;;;43.17;31.00;;;;;;;;;;5078795;28;20445;-56
2021/09/05 02:26:33;;;;;;;56.57;44.23;;;;;;;;;;5076164;28;20516;-49
2021/09/05 02:29:01;;;;;;;38.30;33.10;;;;;;;;;;5057672;28;20438;-54
2021/09/05 02:31:31;;;;;;;57.57;45.40;;;;;;;;;;5057686;28;20464;-53
2021/09/05 02:33:58;;;;;;;52.33;39.27;;;;;;;;;;5057887;28;20454;-50
2021/09/05 02:36:27;;;;;;;38.93;30.03;;;;;;;;;;5058131;28;20492;-51
2021/09/05 02:39:23;;;;;;;32.60;23.40;;;;;;;;;;5057554;28;20473;-55
2021/09/05 02:41:50;;;;;;;43.17;31.30;;;;;;;;;;5068588;28;20484;-55
2021/09/05 02:44:22;;;;;;;35.43;26.97;;;;;;;;;;5077639;28;20473;-53
2021/09/05 02:46:49;;;;;;;45.17;36.00;;;;;;;;;;5077184;28;20491;-50
2021/09/05 02:49:17;;;;;;;30.30;23.60;;;;;;;;;;5077635;28;20449;-53
2021/09/05 02:52:05;;;;;;;31.40;22.50;;;;;;;;;;5077495;28;20457;-51
2021/09/05 02:54:33;;;;;;;26.43;20.07;;;;;;;;;;5077810;28;20472;-52
2021/09/05 02:57:00;;;;;;;25.20;18.13;;;;;;;;;;5062543;28;20450;-52
2021/09/05 02:59:46;;;;;;;22.77;19.33;;;;;;;;;;5056674;28;20473;-50
2021/09/05 03:02:15;;;;;;;36.10;30.00;;;;;;;;;;5071391;28;20479;-55
2021/09/05 03:04:43;;;;;;;25.47;19.83;;;;;;;;;;5077337;28;20492;-51
2021/09/05 03:07:12;;;;;;;21.40;14.77;;;;;;;;;;5077125;28;20472;-52
2021/09/05 03:09:40;;;;;;;20.63;15.30;;;;;;;;;;5077109;28;20453;-55
2021/09/05 03:12:07;;;;;;;24.50;18.60;;;;;;;;;;5077193;28;20437;-58
2021/09/05 03:14:48;;;;;;;18.27;13.67;;;;;;;;;;5077303;28;20461;-49
2021/09/05 03:17:17;;;;;;;20.73;12.80;;;;;;;;;;5077377;28;20433;-55
2021/09/05 03:19:44;;;;;;;25.50;14.90;;;;;;;;;;5077152;28;20453;-55
2021/09/05 03:22:18;;;;;;;19.00;13.90;;;;;;;;;;5077337;28;20452;-53
2021/09/05 03:24:46;;;;;;;20.40;12.87;;;;;;;;;;5077364;28;20445;-51
2021/09/05 03:27:20;;;;;;;17.03;14.47;;;;;;;;;;5076785;28;20465;-53
2021/09/05 03:30:07;;;;;;;19.40;14.10;;;;;;;;;;5076962;28;20445;-51
2021/09/05 03:32:36;;;;;;;18.67;14.33;;;;;;;;;;5056970;28;20497;-50
2021/09/05 03:35:03;;;;;;;19.50;15.07;;;;;;;;;;5056813;28;20815;-49
2021/09/05 03:37:37;;;;;;;17.13;13.00;;;;;;;;;;5057352;28;20445;-54
2021/09/05 03:40:05;;;;;;;17.67;13.97;;;;;;;;;;5069587;28;20481;-55
2021/09/05 03:42:32;;;;;;;19.53;13.43;;;;;;;;;;5059408;28;20482;-53
2021/09/05 03:45:09;;;;;;;24.43;14.80;;;;;;;;;;5057798;28;20501;-51
2021/09/05 03:47:38;;;;;;;15.83;11.90;;;;;;;;;;5056525;28;20490;-53
2021/09/05 03:50:07;;;;;;;18.60;13.00;;;;;;;;;;5068572;28;20460;-55
2021/09/05 03:52:50;;;;;;;17.43;12.73;;;;;;;;;;5064743;28;20434;-57
2021/09/05 03:55:18;;;;;;;18.97;15.10;;;;;;;;;;5056753;28;20488;-54
2021/09/05 03:57:56;;;;;;;16.33;11.83;;;;;;;;;;5057102;28;20454;-53
2021/09/05 04:00:24;;;;;;;17.13;13.70;;;;;;;;;;5057254;28;20450;-55
2021/09/05 04:02:57;;;;;;;19.40;13.27;;;;;;;;;;5073509;28;20441;-49
2021/09/05 04:05:25;;;;;;;17.40;13.37;;;;;;;;;;5076445;28;20421;-52
2021/09/05 04:08:15;;;;;;;17.73;13.50;;;;;;;;;;5076842;28;20474;-49
2021/09/05 04:10:42;;;;;;;18.97;12.70;;;;;;;;;;5078735;28;20475;-56
2021/09/05 04:13:10;;;;;;;16.37;13.20;;;;;;;;;;5072030;28;20513;-50
2021/09/05 04:15:43;;;;;;;18.00;11.47;;;;;;;;;;5080682;28;20457;-50
2021/09/05 04:18:13;;;;;;;16.90;12.20;;;;;;;;;;5079112;28;20477;-54
2021/09/05 04:20:40;;;;;;;16.00;12.67;;;;;;;;;;5080805;28;20441;-51
2021/09/05 04:23:35;;;;;;;21.97;11.80;;;;;;;;;;5081433;28;20464;-51
2021/09/05 04:26:02;;;;;;;13.80;11.13;;;;;;;;;;5068772;28;20504;-56
2021/09/05 04:28:30;;;;;;;14.67;11.77;;;;;;;;;;5071306;28;20500;-55
2021/09/05 04:31:08;;;;;;;18.30;12.10;;;;;;;;;;5061151;28;20442;-49
2021/09/05 04:33:36;;;;;;;16.03;11.73;;;;;;;;;;5060234;28;20446;-56
2021/09/05 04:36:04;;;;;;;17.80;13.00;;;;;;;;;;5060486;28;20438;-53
2021/09/05 04:41:35;;;;;;;16.27;11.93;;;;;;;;;;5060671;28;20486;-50
2021/09/05 04:44:02;;;;;;;15.07;11.90;;;;;;;;;;5060391;28;20450;-51
2021/09/05 04:46:59;;;;;;;14.47;11.87;;;;;;;;;;5076840;28;20457;-52
2021/09/05 04:49:28;;;;;;;18.00;13.10;;;;;;;;;;5077444;28;20586;-49
2021/09/05 04:51:55;;;;;;;18.37;12.80;;;;;;;;;;5075189;28;20460;-52
2021/09/05 04:54:22;;;;;;;18.40;12.70;;;;;;;;;;5060349;28;20457;-53
2021/09/05 04:56:50;;;;;;;19.30;13.13;;;;;;;;;;5068276;28;20615;-51
2021/09/05 04:59:27;;;;;;;17.67;12.90;;;;;;;;;;5079814;28;20531;-58
2021/09/05 05:01:57;;;;;;;16.43;12.90;;;;;;;;;;5067955;28;20437;-55
2021/09/05 05:04:24;;;;;;;17.00;12.40;;;;;;;;;;5075430;28;20456;-55
2021/09/05 05:06:59;;;;;;;15.00;11.57;;;;;;;;;;5079276;28;20467;-54
2021/09/05 05:09:27;;;;;;;18.80;12.23;;;;;;;;;;5068010;28;20479;-58
2021/09/05 05:11:54;;;;;;;15.40;11.97;;;;;;;;;;5079348;28;20494;-53
2021/09/05 05:14:22;;;;;;;14.50;10.63;;;;;;;;;;5076705;28;20448;-51
2021/09/05 05:16:49;;;;;;;14.47;11.20;;;;;;;;;;5075547;28;20434;-50
2021/09/05 05:19:17;;;;;;;16.30;12.60;;;;;;;;;;5079333;28;20496;-57
2021/09/05 05:21:44;;;;;;;17.10;12.13;;;;;;;;;;5064184;28;20449;-53
2021/09/05 05:24:13;;;;;;;18.30;12.83;;;;;;;;;;5078823;28;20441;-52
2021/09/05 05:26:51;;;;;;;16.87;12.23;;;;;;;;;;5079012;28;20476;-55
2021/09/05 05:29:21;;;;;;;18.90;11.93;;;;;;;;;;5078934;28;20496;-54
2021/09/05 05:31:48;;;;;;;16.57;11.10;;;;;;;;;;5079084;28;20417;-47
2021/09/05 05:34:19;;;;;;;13.77;11.50;;;;;;;;;;5058938;28;20512;-51
2021/09/05 05:36:46;;;;;;;15.60;10.90;;;;;;;;;;5058772;28;20448;-53
2021/09/05 05:39:15;;;;;;;15.70;12.07;;;;;;;;;;5058292;28;20472;-47
2021/09/05 05:41:42;;;;;;;13.47;11.03;;;;;;;;;;5058272;28;20453;-53
2021/09/05 05:44:10;;;;;;;16.40;11.83;;;;;;;;;;5058764;28;20454;-57
2021/09/05 05:46:37;;;;;;;16.73;12.20;;;;;;;;;;5058428;28;20454;-54
2021/09/05 05:49:04;;;;;;;14.87;10.97;;;;;;;;;;5058158;28;20489;-54
2021/09/05 05:51:34;;;;;;;16.97;11.97;;;;;;;;;;5058522;28;20521;-55
2021/09/05 05:54:02;;;;;;;14.30;11.30;;;;;;;;;;5041043;28;20446;-55
2021/09/05 05:56:31;;;;;;;20.30;12.33;;;;;;;;;;5041564;28;20438;-51
2021/09/05 05:59:03;;;;;;;13.23;10.70;;;;;;;;;;5058384;28;20453;-58
2021/09/05 06:01:31;;;;;;;13.30;10.30;;;;;;;;;;5058038;28;20461;-54
2021/09/05 06:03:59;;;;;;;14.50;11.20;;;;;;;;;;5057333;28;20461;-57
2021/09/05 06:06:29;;;;;;;17.50;10.80;;;;;;;;;;5057955;28;20442;-58
2021/09/05 06:08:57;;;;;;;16.07;12.17;;;;;;;;;;5069998;28;20497;-58
2021/09/05 06:11:24;;;;;;;16.10;11.73;;;;;;;;;;5077617;28;20449;-58
2021/09/05 06:13:53;;;;;;;15.93;12.00;;;;;;;;;;5077398;28;20453;-59
2021/09/05 06:16:23;;;;;;;16.90;11.90;;;;;;;;;;5072337;28;20457;-55
2021/09/05 06:18:50;;;;;;;15.53;11.20;;;;;;;;;;5062278;28;20474;-54
2021/09/05 06:21:31;;;;;;;15.63;12.20;;;;;;;;;;5071221;28;20483;-55
2021/09/05 06:23:58;;;;;;;18.13;13.90;;;;;;;;;;5058408;28;20457;-55
2021/09/05 06:26:26;;;;;;;16.10;12.67;;;;;;;;;;5063029;28;20468;-56
2021/09/05 06:29:04;;;;;;;14.53;11.77;;;;;;;;;;5058133;28;20505;-56
2021/09/05 06:31:32;;;;;;;17.57;11.53;;;;;;;;;;5071838;28;20638;-52
2021/09/05 06:34:00;;;;;;;20.93;14.73;;;;;;;;;;5077456;28;20517;-58
2021/09/05 06:36:28;;;;;;;15.17;11.77;;;;;;;;;;5074945;28;20445;-52
2021/09/05 06:38:56;;;;;;;14.87;11.10;;;;;;;;;;5068037;28;20445;-55
2021/09/05 06:41:23;;;;;;;14.63;10.80;;;;;;;;;;5077910;28;20532;-50
2021/09/05 06:43:50;;;;;;;16.10;11.23;;;;;;;;;;5077079;28;20452;-52
2021/09/05 06:46:19;;;;;;;16.70;12.60;;;;;;;;;;5064676;28;20442;-54
2021/09/05 06:48:46;;;;;;;16.43;12.13;;;;;;;;;;5060478;28;20478;-55
2021/09/05 06:51:17;;;;;;;17.33;11.60;;;;;;;;;;5059482;28;20481;-54
2021/09/05 06:53:44;;;;;;;16.73;12.67;;;;;;;;;;5071962;28;20438;-54
2021/09/05 06:56:12;;;;;;;17.43;11.50;;;;;;;;;;5062411;28;20492;-55
2021/09/05 07:01:48;;;;;;;15.50;12.30;;;;;;;;;;5069933;28;20504;-52
2021/09/05 07:04:16;;;;;;;15.50;10.70;;;;;;;;;;5069964;28;20467;-49
2021/09/05 07:09:47;;;;;;;17.70;12.40;;;;;;;;;;5068840;28;20514;-54
2021/09/05 07:12:14;;;;;;;19.13;13.23;;;;;;;;;;5068802;28;20458;-49
2021/09/05 07:14:44;;;;;;;16.67;11.80;;;;;;;;;;5072080;28;20467;-52
2021/09/05 07:17:14;;;;;;;14.77;12.30;;;;;;;;;;5043988;28;20473;-58
2021/09/05 07:19:42;;;;;;;16.33;10.87;;;;;;;;;;5057595;28;20454;-55
2021/09/05 07:25:21;;;;;;;15.10;11.57;;;;;;;;;;5076710;28;20477;-58
2021/09/05 07:27:49;;;;;;;15.30;11.27;;;;;;;;;;5055280;28;20446;-53
2021/09/05 07:30:19;;;;;;;17.47;12.67;;;;;;;;;;5055861;28;20502;-56
2021/09/05 07:32:47;;;;;;;16.87;12.20;;;;;;;;;;5040052;28;20462;-50
2021/09/05 07:35:15;;;;;;;18.33;13.23;;;;;;;;;;5053924;28;20494;-54
2021/09/05 07:37:45;;;;;;;16.83;12.97;;;;;;;;;;5056536;28;20476;-52
2021/09/05 07:40:21;;;;;;;16.80;13.47;;;;;;;;;;5040891;28;20439;-53
2021/09/05 07:42:49;;;;;;;17.20;13.63;;;;;;;;;;5036793;28;20506;-53
2021/09/05 07:45:17;;;;;;;19.00;12.97;;;;;;;;;;5052512;28;20506;-53
2021/09/05 07:48:08;;;;;;;17.80;13.13;;;;;;;;;;5031199;28;20482;-51
2021/09/05 07:50:42;;;;;;;20.07;12.57;;;;;;;;;;5037289;28;20460;-53
2021/09/05 07:53:26;;;;;;;17.13;12.23;;;;;;;;;;5036528;28;20439;-58
2021/09/05 07:59:02;;;;;;;18.13;13.60;;;;;;;;;;5036585;28;20463;-58
2021/09/05 08:01:30;;;;;;;17.50;12.20;;;;;;;;;;5036957;28;20474;-56
2021/09/05 08:03:57;;;;;;;17.43;13.33;;;;;;;;;;5036469;28;20443;-53
2021/09/05 08:09:30;;;;;;;18.77;13.67;;;;;;;;;;5084213;28;20551;-52
2021/09/05 08:11:58;;;;;;;15.23;12.50;;;;;;;;;;5080421;28;20500;-55
2021/09/05 08:14:34;;;;;;;17.37;11.37;;;;;;;;;;5076438;28;20457;-57
2021/09/05 08:17:02;;;;;;;20.73;12.70;;;;;;;;;;5074300;28;20495;-56
2021/09/05 08:19:30;;;;;;;17.30;12.37;;;;;;;;;;5069415;28;20442;-54
2021/09/05 08:22:17;;;;;;;15.30;13.13;;;;;;;;;;5056715;28;20445;-51
2021/09/05 08:24:46;;;;;;;14.10;11.70;;;;;;;;;;5066722;28;20484;-52
2021/09/05 08:27:14;;;;;;;15.83;12.70;;;;;;;;;;5076677;28;20441;-52
2021/09/05 08:29:52;;;;;;;16.27;12.90;;;;;;;;;;5075157;28;20469;-54
2021/09/05 08:32:19;;;;;;;23.60;14.43;;;;;;;;;;5056351;28;20528;-54
2021/09/05 08:34:50;;;;;;;16.83;12.97;;;;;;;;;;5061277;28;20451;-58
2021/09/05 08:37:20;;;;;;;16.47;12.57;;;;;;;;;;5056095;28;20446;-50
2021/09/05 08:39:50;;;;;;;16.70;12.53;;;;;;;;;;5055661;28;20458;-53
2021/09/05 08:42:18;;;;;;;15.73;11.97;;;;;;;;;;5060908;28;20448;-56
2021/09/05 08:44:50;;;;;;;15.90;12.57;;;;;;;;;;5075871;28;20491;-52
2021/09/05 08:47:18;;;;;;;15.03;12.27;;;;;;;;;;5075848;28;20433;-56
2021/09/05 08:50:20;;;;;;;18.50;13.63;;;;;;;;;;5072359;28;20509;-59
2021/09/05 08:52:48;;;;;;;15.00;11.57;;;;;;;;;;5055488;28;20457;-52
2021/09/05 08:55:17;;;;;;;15.50;12.40;;;;;;;;;;5055494;28;20450;-53
2021/09/05 08:58:11;;;;;;;18.33;12.53;;;;;;;;;;5058468;28;20517;-51
2021/09/05 09:00:40;;;;;;;16.13;12.30;;;;;;;;;;5059463;28;20446;-50
2021/09/05 09:03:08;;;;;;;17.27;12.93;;;;;;;;;;5059435;28;20460;-59
2021/09/05 09:08:39;;;;;;;16.43;12.20;;;;;;;;;;5069495;28;20464;-56
2021/09/05 09:11:17;;;;;;;16.43;12.70;;;;;;;;;;5079756;28;20472;-55
2021/09/05 09:16:48;;;;;;;14.90;11.77;;;;;;;;;;5085577;28;20491;-53
2021/09/05 09:19:30;;;;;;;14.27;11.40;;;;;;;;;;5078904;28;20663;-52
2021/09/05 09:22:17;;;;;;;17.23;13.03;;;;;;;;;;5076330;28;20445;-56
2021/09/05 09:24:55;;;;;;;16.20;11.37;;;;;;;;;;5079651;28;20456;-59
2021/09/05 09:27:47;;;;;;;16.50;12.97;;;;;;;;;;5098064;28;20455;-49
2021/09/05 09:30:15;;;;;;;18.87;11.87;;;;;;;;;;5098807;28;20489;-47
2021/09/05 09:32:50;;;;;;;17.50;12.60;;;;;;;;;;5083578;28;20461;-61
2021/09/05 09:35:53;;;;;;;16.23;12.83;;;;;;;;;;5058896;28;20465;-52
2021/09/05 09:38:21;;;;;;;19.67;11.77;;;;;;;;;;5059155;28;20480;-54
2021/09/05 09:40:49;;;;;;;17.80;10.53;;;;;;;;;;5058847;28;20450;-54
2021/09/05 09:43:30;;;;;;;18.67;11.93;;;;;;;;;;5061918;28;20445;-49
2021/09/05 09:46:12;;;;;;;14.30;11.83;;;;;;;;;;5076285;28;20484;-46
2021/09/05 09:48:44;;;;;;;15.60;11.60;;;;;;;;;;5061061;28;20454;-53
2021/09/05 09:51:11;;;;;;;13.93;11.40;;;;;;;;;;5072314;28;20464;-54
2021/09/05 09:53:40;;;;;;;18.20;11.50;;;;;;;;;;5078415;28;20453;-53
2021/09/05 09:56:23;;;;;;;13.20;10.47;;;;;;;;;;5078342;28;20497;-52
2021/09/05 09:58:53;;;;;;;13.47;12.03;;;;;;;;;;5071923;28;20756;-56
2021/09/05 10:01:24;;;;;;;15.07;11.10;;;;;;;;;;5058130;28;20450;-54
2021/09/05 10:04:17;;;;;;;16.10;10.87;;;;;;;;;;5057994;28;20501;-50
2021/09/05 10:06:44;;;;;;;12.93;10.27;;;;;;;;;;5058044;28;20438;-54
2021/09/05 10:09:13;;;;;;;14.67;11.40;;;;;;;;;;5057369;28;20545;-57
2021/09/05 10:11:42;;;;;;;16.73;12.10;;;;;;;;;;5057894;28;20458;-57
2021/09/05 10:14:11;;;;;;;14.10;11.00;;;;;;;;;;5057919;28;20509;-51
2021/09/05 10:16:39;;;;;;;17.53;11.57;;;;;;;;;;5062474;28;20461;-53
2021/09/05 10:22:10;;;;;;;13.23;10.80;;;;;;;;;;5070943;28;20424;-51
2021/09/05 10:24:44;;;;;;;13.03;9.80;;;;;;;;;;5057833;28;20456;-56
2021/09/05 10:30:18;;;;;;;13.87;11.70;;;;;;;;;;5074815;28;20518;-51
2021/09/05 10:32:47;;;;;;;14.03;10.10;;;;;;;;;;5077783;28;20500;-55
2021/09/05 10:35:37;;;;;;;13.50;10.57;;;;;;;;;;5077281;28;20457;-55
2021/09/05 10:38:30;;;;;;;14.90;10.30;;;;;;;;;;5075089;28;20500;-51
2021/09/05 10:40:58;;;;;;;13.43;11.60;;;;;;;;;;5076664;28;20459;-57
2021/09/05 10:43:46;;;;;;;15.57;13.40;;;;;;;;;;5058204;28;20473;-49
2021/09/05 10:46:19;;;;;;;16.40;10.00;;;;;;;;;;5041456;28;20525;-57
2021/09/05 10:48:47;;;;;;;14.67;10.77;;;;;;;;;;5048456;28;20464;-55
2021/09/05 10:51:19;;;;;;;10.90;9.70;;;;;;;;;;5056560;28;20469;-54
2021/09/05 10:53:55;;;;;;;14.93;9.87;;;;;;;;;;5057871;28;20439;-53
2021/09/05 10:56:28;;;;;;;10.40;8.90;;;;;;;;;;5057042;28;20465;-53
2021/09/05 10:59:05;;;;;;;13.23;9.17;;;;;;;;;;5069006;28;20475;-50
2021/09/05 11:01:35;;;;;;;11.57;10.20;;;;;;;;;;5097203;28;20462;-58
2021/09/05 11:07:34;;;;;;;12.23;9.43;;;;;;;;;;5072242;28;20435;-55
2021/09/05 11:10:02;;;;;;;11.30;9.00;;;;;;;;;;5075628;28;20473;-58
2021/09/05 11:12:48;;;;;;;9.60;8.07;;;;;;;;;;5076320;28;20429;-50
2021/09/05 11:15:19;;;;;;;10.93;8.90;;;;;;;;;;5056136;28;20457;-58
2021/09/05 11:17:56;;;;;;;13.60;9.20;;;;;;;;;;5054801;28;20465;-52
2021/09/05 11:20:57;;;;;;;9.73;8.23;;;;;;;;;;5055144;28;20472;-51
2021/09/05 11:23:25;;;;;;;10.73;7.87;;;;;;;;;;5055653;28;20457;-50
2021/09/05 11:25:54;;;;;;;9.10;7.57;;;;;;;;;;5080608;28;20655;-56
2021/09/05 11:28:33;;;;;;;10.23;8.27;;;;;;;;;;5076300;28;20592;-54
2021/09/05 11:31:03;;;;;;;10.80;8.17;;;;;;;;;;5075950;28;20480;-55
2021/09/05 11:33:32;;;;;;;11.90;8.80;;;;;;;;;;5065761;28;20434;-48
2021/09/05 11:36:18;;;;;;;12.30;8.67;;;;;;;;;;5072251;28;20452;-52
2021/09/05 11:38:50;;;;;;;10.77;8.13;;;;;;;;;;5056002;28;20433;-53
2021/09/05 11:41:24;;;;;;;13.57;10.10;;;;;;;;;;5056211;28;20446;-52
2021/09/05 11:43:55;;;;;;;13.33;9.60;;;;;;;;;;5040856;28;20442;-54
2021/09/05 11:46:22;;;;;;;10.97;9.30;;;;;;;;;;5036067;28;20463;-54
2021/09/05 11:48:58;;;;;;;10.70;7.73;;;;;;;;;;5050236;28;20493;-48
2021/09/05 11:51:29;;;;;;;10.57;9.20;;;;;;;;;;5055994;28;20476;-51
2021/09/05 11:53:59;;;;;;;9.47;8.30;;;;;;;;;;5063903;28;20462;-57
2021/09/05 11:56:33;;;;;;;10.77;8.83;;;;;;;;;;5056082;28;20458;-49
2021/09/05 11:59:24;;;;;;;10.83;8.17;;;;;;;;;;5047445;28;20473;-52
2021/09/05 12:01:53;;;;;;;12.40;9.43;;;;;;;;;;5035130;28;20489;-53
2021/09/05 12:04:22;;;;;;;11.00;8.33;;;;;;;;;;5070742;28;20453;-58
2021/09/05 12:07:00;;;;;;;10.70;8.80;;;;;;;;;;5066928;28;20468;-54
2021/09/05 12:09:28;;;;;;;9.90;8.10;;;;;;;;;;5044845;28;20474;-50
2021/09/05 12:11:55;;;;;;;10.33;7.43;;;;;;;;;;5042048;28;20438;-54
2021/09/05 12:14:41;;;;;;;11.07;8.57;;;;;;;;;;5037993;28;20459;-48
2021/09/05 12:17:18;;;;;;;11.13;8.67;;;;;;;;;;5041361;28;20516;-54
2021/09/05 12:19:57;;;;;;;11.30;9.30;;;;;;;;;;5049289;28;20477;-55
2021/09/05 12:22:25;;;;;;;12.83;10.97;;;;;;;;;;5043743;28;20453;-56
2021/09/05 12:25:00;;;;;;;11.40;8.70;;;;;;;;;;5037414;28;20443;-53
2021/09/05 12:27:29;;;;;;;12.50;8.70;;;;;;;;;;5049610;28;20433;-49
2021/09/05 12:29:59;;;;;;;11.00;8.90;;;;;;;;;;5055824;28;20469;-55
2021/09/05 12:32:40;;;;;;;10.77;8.53;;;;;;;;;;5070378;28;20465;-52
2021/09/05 12:35:09;;;;;;;8.33;6.73;;;;;;;;;;5078747;28;20475;-53
2021/09/05 12:37:42;;;;;;;10.00;7.70;;;;;;;;;;5072790;28;20538;-57
2021/09/05 12:40:17;;;;;;;10.67;8.20;;;;;;;;;;5087578;28;20570;-48
2021/09/05 12:42:47;;;;;;;10.60;8.50;;;;;;;;;;5090622;28;20470;-50
2021/09/05 12:45:15;;;;;;;11.30;9.10;;;;;;;;;;5098527;28;20591;-51
2021/09/05 12:48:13;;;;;;;10.60;7.57;;;;;;;;;;5078880;28;20540;-51
2021/09/05 12:50:47;;;;;;;12.77;9.17;;;;;;;;;;5078017;28;20500;-55
2021/09/05 12:53:32;;;;;;;12.27;8.10;;;;;;;;;;5077634;28;20491;-56
2021/09/05 12:55:59;;;;;;;13.30;7.73;;;;;;;;;;5078238;28;20432;-51
2021/09/05 12:58:30;;;;;;;7.07;6.10;;;;;;;;;;5078365;28;20441;-54
2021/09/05 13:00:57;;;;;;;9.70;7.77;;;;;;;;;;5077604;28;20453;-55
2021/09/05 13:03:30;;;;;;;10.07;6.43;;;;;;;;;;5067820;28;20430;-53
2021/09/05 13:06:08;;;;;;;9.40;7.90;;;;;;;;;;5061691;28;20529;-52
2021/09/05 13:08:39;;;;;;;8.90;7.00;;;;;;;;;;5058678;28;20513;-55
2021/09/05 13:11:07;;;;;;;8.43;6.20;;;;;;;;;;5071933;28;20485;-54
2021/09/05 13:13:49;;;;;;;8.70;5.80;;;;;;;;;;5058160;28;20462;-50
2021/09/05 13:16:17;;;;;;;8.50;5.67;;;;;;;;;;5069814;28;20497;-54
2021/09/05 13:18:44;;;;;;;7.30;5.63;;;;;;;;;;5067151;28;20462;-53
2021/09/05 13:21:22;;;;;;;7.13;5.50;;;;;;;;;;5058225;28;20486;-44
2021/09/05 13:23:49;;;;;;;7.13;5.50;;;;;;;;;;5057509;28;20464;-56
2021/09/05 13:26:19;;;;;;;9.23;6.33;;;;;;;;;;5056871;28;20434;-50
2021/09/05 13:28:49;;;;;;;7.57;5.27;;;;;;;;;;5057134;28;20453;-58
2021/09/05 13:31:19;;;;;;;7.17;5.73;;;;;;;;;;5057660;28;20497;-55
2021/09/05 13:33:51;;;;;;;8.50;6.83;;;;;;;;;;5057220;28;20478;-50
2021/09/05 13:36:21;;;;;;;22.27;6.83;;;;;;;;;;5057099;28;20501;-54
2021/09/05 13:38:49;;;;;;;9.80;8.20;;;;;;;;;;5068850;28;20445;-50
2021/09/05 13:41:25;;;;;;;9.20;7.97;;;;;;;;;;5076287;28;20437;-54
2021/09/05 13:44:08;;;;;;;8.80;7.57;;;;;;;;;;5072377;28;20492;-50
2021/09/05 13:46:38;;;;;;;8.50;7.57;;;;;;;;;;5075143;28;20484;-52
2021/09/05 13:49:08;;;;;;;11.93;7.53;;;;;;;;;;5076122;28;20448;-55
2021/09/05 13:51:37;;;;;;;11.70;8.70;;;;;;;;;;5059868;28;20696;-52
2021/09/05 13:54:04;;;;;;;10.50;8.67;;;;;;;;;;5055829;28;20457;-53
2021/09/05 13:56:54;;;;;;;9.43;7.50;;;;;;;;;;5056251;28;20460;-49
2021/09/05 13:59:22;;;;;;;14.40;8.90;;;;;;;;;;5071476;28;20532;-47
2021/09/05 14:01:49;;;;;;;12.67;8.13;;;;;;;;;;5075972;28;20433;-48
2021/09/05 14:04:24;;;;;;;12.43;7.93;;;;;;;;;;5076900;28;20481;-51
2021/09/05 14:06:55;;;;;;;15.90;13.70;;;;;;;;;;5074862;28;20481;-53
2021/09/05 14:09:23;;;;;;;15.03;11.67;;;;;;;;;;5075878;28;20495;-53
2021/09/05 14:11:53;;;;;;;12.70;9.80;;;;;;;;;;5076411;28;20515;-52
2021/09/05 14:14:21;;;;;;;10.40;7.57;;;;;;;;;;5060895;28;20684;-54
2021/09/05 14:16:48;;;;;;;9.17;7.47;;;;;;;;;;5056980;28;20433;-51
2021/09/05 14:19:41;;;;;;;12.47;8.10;;;;;;;;;;5056185;28;20461;-54
2021/09/05 14:22:11;;;;;;;8.70;7.30;;;;;;;;;;5056635;28;20457;-54
2021/09/05 14:24:38;;;;;;;9.50;7.97;;;;;;;;;;5056680;28;20525;-55
2021/09/05 14:27:17;;;;;;;8.93;6.90;;;;;;;;;;5057368;28;20444;-55
2021/09/05 14:29:51;;;;;;;9.33;7.40;;;;;;;;;;5056930;28;20454;-50
2021/09/05 14:32:33;;;;;;;8.03;6.43;;;;;;;;;;5072973;28;20482;-54
2021/09/05 14:35:26;;;;;;;6.87;5.97;;;;;;;;;;5094459;28;20445;-49
2021/09/05 14:38:14;;;;;;;8.97;5.37;;;;;;;;;;5069942;28;20517;-52
2021/09/05 14:49:34;;;;;;;7.30;5.03;;;;;;;;;;5056885;28;20437;-53
2021/09/05 14:55:17;;;;;;;11.93;7.80;;;;;;;;;;5055666;28;20425;-55
2021/09/05 14:57:50;;;;;;;9.60;6.40;;;;;;;;;;5054551;28;20513;-56
2021/09/05 15:00:18;;;;;;;15.03;7.00;;;;;;;;;;5056616;28;20453;-49
2021/09/05 15:02:57;;;;;;;9.27;6.60;;;;;;;;;;5056112;28;20457;-51
2021/09/05 15:11:07;;;;;;;11.60;8.87;;;;;;;;;;5068937;28;20479;-58
2021/09/05 15:13:37;;;;;;;7.73;6.30;;;;;;;;;;5055934;28;20518;-55
2021/09/05 15:16:05;;;;;;;7.20;5.90;;;;;;;;;;5067475;28;20512;-53
2021/09/05 15:18:34;;;;;;;11.33;6.57;;;;;;;;;;5086590;28;20452;-57
2021/09/05 15:21:11;;;;;;;7.40;6.37;;;;;;;;;;5096563;28;20444;-52
2021/09/05 15:23:44;;;;;;;7.90;6.47;;;;;;;;;;5084663;28;20465;-55
2021/09/05 15:26:14;;;;;;;7.50;5.77;;;;;;;;;;5075986;28;20449;-57
2021/09/05 15:29:32;;;;;;;8.87;7.00;;;;;;;;;;5075284;28;20449;-57
2021/09/05 15:32:20;;;;;;;8.43;6.53;;;;;;;;;;5067294;28;20492;-58
2021/09/05 15:35:18;;;;;;;10.23;7.80;;;;;;;;;;5056967;28;20433;-53
2021/09/05 15:51:57;;;;;;;9.20;8.07;;;;;;;;;;5073265;28;20469;-55
2021/09/05 15:54:26;;;;;;;7.40;6.60;;;;;;;;;;5068054;28;20449;-58
2021/09/05 15:56:56;;;;;;;9.03;7.50;;;;;;;;;;5065432;28;20480;-56
2021/09/05 15:59:32;;;;;;;11.67;8.47;;;;;;;;;;5073608;28;20465;-56
2021/09/05 16:02:03;;;;;;;10.90;9.23;;;;;;;;;;5074049;28;20457;-56
2021/09/05 16:16:32;;;;;;;14.73;8.90;;;;;;;;;;5172883;27;20501;-53
2021/09/05 16:18:59;;;;;;;12.67;9.67;;;;;;;;;;5153147;28;20434;-51
2021/09/05 16:21:27;;;;;;;12.20;9.23;;;;;;;;;;5152431;28;20511;-54
2021/09/05 16:23:55;;;;;;;9.73;7.43;;;;;;;;;;5153235;28;20422;-54